Seattle, Washington
Current Conditions -  °F | °C
As of 6:53 AM on Saturday 25 Oct 2014 (Local Time) from KBFI Reporting Station
Broken Clouds Broken Clouds  
Wind Chill: 52°   Ceiling: 12000
Heat Index: 52°   Visibility: 10mi
Dew Point: 48°   Wind: 0mph
Humidity: 86%   Direction: NA
Pressure: 29.47"   Gusts: NA
Location:  47.6°N, 122.32°W
Report Text: KBFI 251353Z 00000KT 10SM BKN120 11/09 A2947 RMK AO2 SLP980 T01110089
Loading
Personal Weather Stations






























Interactive Weather Map New forecast layout! Learn more

10-Day Weather Forecast

Advertisements
Track Severe Weather on mobile